NCAR-RAP Real-Time Weather Data

Output produced by METARs form (14 October 2019  22:58 UTC)
found at http://weather.rap.ucar.edu/surface/
 
KCHS 142156Z 28005KT 10SM SCT050 BKN250 27/16 A3002 RMK AO2 SLP166 T02670161
KCHS 142056Z 24003KT 10SM SCT050 SCT250 29/16 A3002 RMK AO2 SLP165 T02890161 56005
KCHS 141956Z 31007KT 10SM SCT050 SCT250 29/16 A3002 RMK AO2 SLP165 T02890161
KCHS 141856Z 26007KT 10SM SCT045 28/17 A3002 RMK AO2 SLP165 T02830167
KCHS 141756Z 29008KT 10SM SCT040 28/17 A3003 RMK AO2 SLP169 T02780172 10283 20200 58015
KCHS 141656Z 27007KT 10SM FEW030 27/17 A3005 RMK AO2 SLP176 T02720172
KCHS 141556Z 31008KT 10SM SCT025 26/18 A3007 RMK AO2 SLP181 T02610178
KCHS 141456Z 32009KT 10SM SCT015 24/19 A3008 RMK AO2 SLP184 T02440189 50009
KCHS 141356Z 31006KT 10SM FEW010 SCT020 BKN060 23/19 A3008 RMK AO2 SLP185 T02280194
KCHS 141256Z 00000KT 10SM FEW030 SCT060 21/19 A3006 RMK AO2 SLP180 T02110194
KCHS 141203Z 18003KT 10SM FEW015 SCT027 BKN060 20/19 A3005 RMK AO2 T02000194
KCHS 141156Z 00000KT 10SM FEW005 BKN025 20/19 A3005 RMK AO2 SLP175 60003 70003 T02000189 10222 20200 51008
KCHS 141136Z 00000KT 10SM FEW005 BKN025 21/19 A3005 RMK AO2 T02060194
KCHS 141056Z 33005KT 8SM SCT005 BKN035 21/19 A3004 RMK AO2 RAE21 SLP173 P0000 T02060194
KCHS 141041Z 35005KT 8SM SCT005 SCT026 BKN035 21/19 A3003 RMK AO2 RAE21 P0000 T02060194
KCHS 140956Z 20004KT 8SM -RA FEW028 BKN040 OVC120 21/19 A3003 RMK AO2 RAE14B45 SLP169 P0001 T02060194
KCHS 140907Z 14003KT 8SM -RA FEW028 SCT036 OVC070 21/19 A3002 RMK AO2 P0001 T02060194
KCHS 140856Z 00000KT 8SM -RA BKN028 BKN042 OVC065 21/19 A3002 RMK AO2 SLP166 P0002 60002 T02060194 56006
KCHS 140756Z 33009KT 7SM -RA FEW023 BKN028 OVC038 21/19 A3003 RMK AO2 LTG DSNT NE RAB32 SLP168 CB DSNT NE P0000 T02060189
KCHS 140739Z 33011KT 10SM -RA BKN028 OVC038 22/19 A3003 RMK AO2 RAB32 P0000 T02170194
KCHS 140656Z 32003KT 10SM FEW032 SCT060 OVC120 22/19 A3003 RMK AO2 LTG DSNT W-N SLP170 CB DSNT W-N T02220194
KCHS 140556Z 30004KT 10SM SCT028 SCT100 OVC200 22/19 A3004 RMK AO2 SLP172 T02220194 10233 20217 55000
KCHS 140456Z 21005KT 10SM FEW030 BKN070 OVC180 23/19 A3004 RMK AO2 SLP171 T02280194 403000167
KCHS 140356Z 19006KT 10SM FEW060 SCT100 SCT200 22/19 A3003 RMK AO2 SLP170 T02220194
KCHS 140256Z 20006KT 10SM FEW060 FEW100 SCT200 22/20 A3004 RMK AO2 SLP173 T02220200 50005
KCHS 140156Z 20006KT 10SM FEW110 SCT200 23/20 A3005 RMK AO2 SLP173 T02280200
KCHS 140056Z 19008KT 10SM FEW120 SCT200 23/20 A3003 RMK AO2 SLP168 T02330200
KCHS 132356Z 19008KT 10SM FEW070 BKN200 23/19 A3003 RMK AO2 SLP167 T02330194 10300 20233 50008
KCHS 132256Z 20008KT 10SM FEW070 BKN200 24/19 A3003 RMK AO2 SLP169 T02390194
KCHS 132156Z 19010KT 10SM FEW050 SCT140 OVC200 26/19 A3002 RMK AO2 SLP164 T02560189
KCHS 132056Z 20009KT 10SM FEW038 FEW140 BKN200 27/18 A3001 RMK AO2 SLP160 T02670183 56008
KCHS 131956Z 19009KT 10SM FEW042 SCT140 BKN200 28/18 A3000 RMK AO2 SLP160 T02780178
KCHS 131856Z 27005KT 10SM SCT043 SCT050 BKN200 29/17 A3001 RMK AO2 SLP163 T02890172
KCHS 131756Z 19011KT 10SM SCT043 BKN050 28/17 A3003 RMK AO2 SLP168 T02830167 10289 20178 58017
KCHS 131656Z 24009G14KT 10SM BKN036 BKN046 29/18 A3005 RMK AO2 SLP176 T02890178
KCHS 131556Z 24009KT 10SM SCT027 BKN049 BKN250 27/19 A3007 RMK AO2 SLP183 T02670189
KCHS 131533Z 24009KT 10SM SCT024 BKN033 BKN250 27/19 A3008 RMK AO2 T02670189
KCHS 131456Z 22008KT 10SM BKN024 BKN250 27/19 A3008 RMK AO2 SLP184 T02670194 50006
KCHS 131356Z 25005KT 10SM FEW030 FEW120 FEW250 26/20 A3008 RMK AO2 SLP186 T02560200
KCHS 131256Z 00000KT 10SM FEW030 FEW120 SCT250 22/19 A3007 RMK AO2 SLP181 T02170189
KCHS 131156Z 00000KT 10SM FEW030 FEW120 BKN250 18/16 A3006 RMK AO2 SLP178 T01780161 10194 20167 51012
KCHS 131056Z 00000KT 10SM FEW100 SCT250 18/16 A3005 RMK AO2 SLP174 T01780161
KCHS 130956Z 00000KT 10SM FEW040 18/16 A3004 RMK AO2 SLP173 T01780161
KCHS 130856Z 00000KT 10SM CLR 18/16 A3002 RMK AO2 SLP166 T01780161 55004
KCHS 130756Z 00000KT 10SM CLR 19/16 A3002 RMK AO2 SLP166 T01890161
KCHS 130656Z 00000KT 10SM CLR 19/16 A3002 RMK AO2 SLP166 T01890161
KCHS 130556Z 00000KT 10SM CLR 19/16 A3004 RMK AO2 SLP170 T01940161 10211 20189 55002
KCHS 130456Z 19003KT 10SM CLR 20/16 A3003 RMK AO2 SLP169 T02000161 402890128
KCHS 130356Z 20004KT 10SM CLR 19/16 A3004 RMK AO2 SLP170 T01940156
KCHS 130256Z 19005KT 10SM CLR 19/16 A3004 RMK AO2 SLP172 T01940156 50006
KCHS 130156Z 19004KT 10SM CLR 19/16 A3004 RMK AO2 SLP173 T01940156
KCHS 130056Z 18005KT 10SM CLR 20/15 A3004 RMK AO2 SLP171 T02000150
KCHS 122356Z 19004KT 10SM CLR 21/15 A3003 RMK AO2 SLP166 T02110150 10289 20211 53008